sensor_id;sensor_type;location;lat;lon;timestamp;P1;durP1;ratioP1;P2;durP2;ratioP2
20956;SDS011;10637;47.970;7.830;2023-11-19T00:00:35;4.83;;;1.00;;
20956;SDS011;10637;47.970;7.830;2023-11-19T00:05:36;3.20;;;1.10;;
20956;SDS011;10637;47.970;7.830;2023-11-19T00:10:38;5.03;;;1.10;;
20956;SDS011;10637;47.970;7.830;2023-11-19T00:15:40;3.73;;;1.00;;
20956;SDS011;10637;47.970;7.830;2023-11-19T00:20:42;4.70;;;1.10;;
20956;SDS011;10637;47.970;7.830;2023-11-19T00:25:45;6.30;;;1.10;;
20956;SDS011;10637;47.970;7.830;2023-11-19T00:30:49;6.13;;;1.30;;
20956;SDS011;10637;47.970;7.830;2023-11-19T00:35:51;5.97;;;1.30;;
20956;SDS011;10637;47.970;7.830;2023-11-19T00:40:52;3.63;;;1.00;;
20956;SDS011;10637;47.970;7.830;2023-11-19T00:45:54;4.20;;;1.20;;
20956;SDS011;10637;47.970;7.830;2023-11-19T00:50:56;3.10;;;0.97;;
20956;SDS011;10637;47.970;7.830;2023-11-19T00:55:58;4.53;;;1.00;;
20956;SDS011;10637;47.970;7.830;2023-11-19T01:00:59;6.40;;;1.00;;
20956;SDS011;10637;47.970;7.830;2023-11-19T01:06:01;3.40;;;0.90;;
20956;SDS011;10637;47.970;7.830;2023-11-19T01:11:03;6.40;;;1.17;;
20956;SDS011;10637;47.970;7.830;2023-11-19T01:16:05;4.57;;;1.10;;
20956;SDS011;10637;47.970;7.830;2023-11-19T01:21:08;3.90;;;1.00;;
20956;SDS011;10637;47.970;7.830;2023-11-19T01:26:10;4.23;;;0.90;;
20956;SDS011;10637;47.970;7.830;2023-11-19T01:31:14;4.90;;;1.00;;
20956;SDS011;10637;47.970;7.830;2023-11-19T01:36:16;3.83;;;0.90;;
20956;SDS011;10637;47.970;7.830;2023-11-19T01:41:18;3.43;;;0.90;;
20956;SDS011;10637;47.970;7.830;2023-11-19T01:46:20;4.80;;;1.10;;
20956;SDS011;10637;47.970;7.830;2023-11-19T01:51:22;3.53;;;0.97;;
20956;SDS011;10637;47.970;7.830;2023-11-19T01:56:24;3.57;;;1.00;;
20956;SDS011;10637;47.970;7.830;2023-11-19T02:01:28;6.77;;;0.90;;
20956;SDS011;10637;47.970;7.830;2023-11-19T02:06:31;3.50;;;0.90;;
20956;SDS011;10637;47.970;7.830;2023-11-19T02:11:35;5.73;;;1.37;;
20956;SDS011;10637;47.970;7.830;2023-11-19T02:16:37;6.87;;;1.30;;
20956;SDS011;10637;47.970;7.830;2023-11-19T02:21:39;5.90;;;1.20;;
20956;SDS011;10637;47.970;7.830;2023-11-19T02:26:44;5.90;;;1.57;;
20956;SDS011;10637;47.970;7.830;2023-11-19T02:31:57;7.70;;;1.77;;
20956;SDS011;10637;47.970;7.830;2023-11-19T02:36:59;6.50;;;1.83;;
20956;SDS011;10637;47.970;7.830;2023-11-19T02:42:01;8.03;;;2.13;;
20956;SDS011;10637;47.970;7.830;2023-11-19T02:47:05;6.60;;;1.83;;
20956;SDS011;10637;47.970;7.830;2023-11-19T02:52:09;7.83;;;2.00;;
20956;SDS011;10637;47.970;7.830;2023-11-19T02:57:11;6.90;;;1.70;;
20956;SDS011;10637;47.970;7.830;2023-11-19T03:02:22;9.50;;;2.50;;
20956;SDS011;10637;47.970;7.830;2023-11-19T03:07:26;6.40;;;1.77;;
20956;SDS011;10637;47.970;7.830;2023-11-19T03:12:28;7.57;;;1.70;;
20956;SDS011;10637;47.970;7.830;2023-11-19T03:17:29;6.57;;;1.60;;
20956;SDS011;10637;47.970;7.830;2023-11-19T03:22:31;5.87;;;1.70;;
20956;SDS011;10637;47.970;7.830;2023-11-19T03:27:35;6.30;;;1.40;;
20956;SDS011;10637;47.970;7.830;2023-11-19T03:32:38;7.50;;;1.50;;
20956;SDS011;10637;47.970;7.830;2023-11-19T03:37:40;6.50;;;1.50;;
20956;SDS011;10637;47.970;7.830;2023-11-19T03:42:42;6.70;;;1.50;;
20956;SDS011;10637;47.970;7.830;2023-11-19T03:47:43;6.10;;;1.60;;
20956;SDS011;10637;47.970;7.830;2023-11-19T03:52:46;4.60;;;1.30;;
20956;SDS011;10637;47.970;7.830;2023-11-19T03:57:48;5.83;;;1.60;;
20956;SDS011;10637;47.970;7.830;2023-11-19T04:02:50;6.93;;;1.33;;
20956;SDS011;10637;47.970;7.830;2023-11-19T04:07:51;5.43;;;1.27;;
20956;SDS011;10637;47.970;7.830;2023-11-19T04:12:53;6.10;;;1.40;;
20956;SDS011;10637;47.970;7.830;2023-11-19T04:17:55;4.77;;;1.20;;
20956;SDS011;10637;47.970;7.830;2023-11-19T04:23:00;3.87;;;1.00;;
20956;SDS011;10637;47.970;7.830;2023-11-19T04:28:02;2.93;;;0.90;;
20956;SDS011;10637;47.970;7.830;2023-11-19T04:33:04;3.20;;;0.80;;
20956;SDS011;10637;47.970;7.830;2023-11-19T04:38:07;2.60;;;0.83;;
20956;SDS011;10637;47.970;7.830;2023-11-19T04:43:08;2.13;;;0.70;;
20956;SDS011;10637;47.970;7.830;2023-11-19T04:48:10;3.47;;;0.73;;
20956;SDS011;10637;47.970;7.830;2023-11-19T04:53:13;2.50;;;0.63;;
20956;SDS011;10637;47.970;7.830;2023-11-19T04:58:16;1.37;;;0.50;;
20956;SDS011;10637;47.970;7.830;2023-11-19T05:03:18;1.43;;;0.60;;
20956;SDS011;10637;47.970;7.830;2023-11-19T05:08:20;1.53;;;0.50;;
20956;SDS011;10637;47.970;7.830;2023-11-19T05:13:22;1.30;;;0.60;;
20956;SDS011;10637;47.970;7.830;2023-11-19T05:18:24;1.43;;;0.70;;
20956;SDS011;10637;47.970;7.830;2023-11-19T05:23:25;2.80;;;0.80;;
20956;SDS011;10637;47.970;7.830;2023-11-19T05:28:27;2.03;;;0.60;;
20956;SDS011;10637;47.970;7.830;2023-11-19T05:33:29;2.23;;;0.70;;
20956;SDS011;10637;47.970;7.830;2023-11-19T05:38:31;2.00;;;0.63;;
20956;SDS011;10637;47.970;7.830;2023-11-19T05:43:33;2.10;;;0.60;;
20956;SDS011;10637;47.970;7.830;2023-11-19T05:48:35;1.43;;;0.60;;
20956;SDS011;10637;47.970;7.830;2023-11-19T05:53:37;2.50;;;0.70;;
20956;SDS011;10637;47.970;7.830;2023-11-19T05:58:38;1.90;;;0.60;;
20956;SDS011;10637;47.970;7.830;2023-11-19T06:03:41;0.97;;;0.50;;
20956;SDS011;10637;47.970;7.830;2023-11-19T06:08:45;3.37;;;0.60;;
20956;SDS011;10637;47.970;7.830;2023-11-19T06:13:46;1.93;;;0.70;;
20956;SDS011;10637;47.970;7.830;2023-11-19T06:18:49;2.60;;;0.60;;
20956;SDS011;10637;47.970;7.830;2023-11-19T06:23:51;1.23;;;0.63;;
20956;SDS011;10637;47.970;7.830;2023-11-19T06:28:54;1.97;;;0.60;;
20956;SDS011;10637;47.970;7.830;2023-11-19T06:33:56;3.50;;;0.90;;
20956;SDS011;10637;47.970;7.830;2023-11-19T06:38:58;1.63;;;0.60;;
20956;SDS011;10637;47.970;7.830;2023-11-19T06:44:00;2.83;;;0.80;;
20956;SDS011;10637;47.970;7.830;2023-11-19T06:49:02;3.27;;;0.80;;
20956;SDS011;10637;47.970;7.830;2023-11-19T06:54:04;9.00;;;3.17;;
20956;SDS011;10637;47.970;7.830;2023-11-19T06:59:06;7.50;;;2.90;;
20956;SDS011;10637;47.970;7.830;2023-11-19T07:04:08;3.13;;;0.90;;
20956;SDS011;10637;47.970;7.830;2023-11-19T07:09:13;2.60;;;0.90;;
20956;SDS011;10637;47.970;7.830;2023-11-19T07:14:15;4.43;;;1.13;;
20956;SDS011;10637;47.970;7.830;2023-11-19T07:19:17;3.93;;;1.10;;
20956;SDS011;10637;47.970;7.830;2023-11-19T07:24:20;3.20;;;0.90;;
20956;SDS011;10637;47.970;7.830;2023-11-19T07:29:22;4.70;;;1.07;;
20956;SDS011;10637;47.970;7.830;2023-11-19T07:34:27;3.53;;;0.90;;
20956;SDS011;10637;47.970;7.830;2023-11-19T07:39:30;4.17;;;1.17;;
20956;SDS011;10637;47.970;7.830;2023-11-19T07:44:32;4.37;;;0.90;;
20956;SDS011;10637;47.970;7.830;2023-11-19T07:49:34;3.97;;;0.90;;
20956;SDS011;10637;47.970;7.830;2023-11-19T07:54:35;2.50;;;0.90;;
20956;SDS011;10637;47.970;7.830;2023-11-19T07:59:37;3.60;;;0.90;;
20956;SDS011;10637;47.970;7.830;2023-11-19T08:04:40;3.53;;;1.00;;
20956;SDS011;10637;47.970;7.830;2023-11-19T08:09:46;4.03;;;1.13;;
20956;SDS011;10637;47.970;7.830;2023-11-19T08:14:48;4.40;;;0.90;;
20956;SDS011;10637;47.970;7.830;2023-11-19T08:19:50;3.87;;;1.00;;
20956;SDS011;10637;47.970;7.830;2023-11-19T08:24:52;3.83;;;0.90;;
20956;SDS011;10637;47.970;7.830;2023-11-19T08:29:54;4.70;;;1.30;;
20956;SDS011;10637;47.970;7.830;2023-11-19T08:34:58;3.77;;;1.07;;
20956;SDS011;10637;47.970;7.830;2023-11-19T08:40:00;3.43;;;1.10;;
20956;SDS011;10637;47.970;7.830;2023-11-19T08:45:02;4.60;;;1.00;;
20956;SDS011;10637;47.970;7.830;2023-11-19T08:50:06;6.40;;;1.93;;
20956;SDS011;10637;47.970;7.830;2023-11-19T08:55:08;7.87;;;2.17;;
20956;SDS011;10637;47.970;7.830;2023-11-19T09:00:11;4.60;;;1.20;;
20956;SDS011;10637;47.970;7.830;2023-11-19T09:05:15;5.77;;;1.63;;
20956;SDS011;10637;47.970;7.830;2023-11-19T09:10:17;4.90;;;1.20;;
20956;SDS011;10637;47.970;7.830;2023-11-19T09:15:18;3.27;;;1.03;;
20956;SDS011;10637;47.970;7.830;2023-11-19T09:20:20;5.47;;;1.40;;
20956;SDS011;10637;47.970;7.830;2023-11-19T09:25:22;5.53;;;1.20;;
20956;SDS011;10637;47.970;7.830;2023-11-19T09:30:24;4.73;;;1.33;;
20956;SDS011;10637;47.970;7.830;2023-11-19T09:35:25;8.70;;;1.80;;
20956;SDS011;10637;47.970;7.830;2023-11-19T09:40:27;6.57;;;1.20;;
20956;SDS011;10637;47.970;7.830;2023-11-19T09:45:29;5.33;;;1.37;;
20956;SDS011;10637;47.970;7.830;2023-11-19T09:50:37;5.13;;;1.20;;
20956;SDS011;10637;47.970;7.830;2023-11-19T09:55:40;5.63;;;1.50;;
20956;SDS011;10637;47.970;7.830;2023-11-19T10:00:43;5.33;;;1.20;;
20956;SDS011;10637;47.970;7.830;2023-11-19T10:05:55;5.83;;;1.30;;
20956;SDS011;10637;47.970;7.830;2023-11-19T10:10:58;5.03;;;1.10;;
20956;SDS011;10637;47.970;7.830;2023-11-19T10:16:03;4.20;;;1.17;;
20956;SDS011;10637;47.970;7.830;2023-11-19T10:21:08;4.90;;;1.20;;
20956;SDS011;10637;47.970;7.830;2023-11-19T10:26:18;8.73;;;2.23;;
20956;SDS011;10637;47.970;7.830;2023-11-19T10:31:21;4.87;;;1.60;;
20956;SDS011;10637;47.970;7.830;2023-11-19T10:36:38;4.97;;;1.50;;
20956;SDS011;10637;47.970;7.830;2023-11-19T10:41:43;5.93;;;1.67;;
20956;SDS011;10637;47.970;7.830;2023-11-19T10:46:45;5.27;;;1.30;;
20956;SDS011;10637;47.970;7.830;2023-11-19T10:51:50;4.70;;;1.20;;
20956;SDS011;10637;47.970;7.830;2023-11-19T10:56:54;6.57;;;1.67;;
20956;SDS011;10637;47.970;7.830;2023-11-19T11:02:00;4.27;;;1.00;;
20956;SDS011;10637;47.970;7.830;2023-11-19T11:07:08;7.13;;;2.27;;
20956;SDS011;10637;47.970;7.830;2023-11-19T11:12:11;4.23;;;1.00;;
20956;SDS011;10637;47.970;7.830;2023-11-19T11:17:13;5.43;;;1.37;;
20956;SDS011;10637;47.970;7.830;2023-11-19T11:22:19;2.73;;;0.90;;
20956;SDS011;10637;47.970;7.830;2023-11-19T11:38:01;9.37;;;3.07;;
20956;SDS011;10637;47.970;7.830;2023-11-19T11:43:54;7.00;;;2.30;;
20956;SDS011;10637;47.970;7.830;2023-11-19T11:48:45;6.73;;;1.70;;
20956;SDS011;10637;47.970;7.830;2023-11-19T11:53:51;7.27;;;1.73;;
20956;SDS011;10637;47.970;7.830;2023-11-19T11:58:53;7.17;;;2.57;;
20956;SDS011;10637;47.970;7.830;2023-11-19T12:03:56;7.87;;;1.90;;
20956;SDS011;10637;47.970;7.830;2023-11-19T12:09:02;9.63;;;2.80;;
20956;SDS011;10637;47.970;7.830;2023-11-19T12:14:03;6.87;;;1.73;;
20956;SDS011;10637;47.970;7.830;2023-11-19T12:19:07;8.13;;;1.80;;
20956;SDS011;10637;47.970;7.830;2023-11-19T12:24:09;4.77;;;1.37;;
20956;SDS011;10637;47.970;7.830;2023-11-19T12:29:12;6.33;;;1.63;;
20956;SDS011;10637;47.970;7.830;2023-11-19T12:34:14;6.43;;;1.57;;
20956;SDS011;10637;47.970;7.830;2023-11-19T12:39:16;8.57;;;1.80;;
20956;SDS011;10637;47.970;7.830;2023-11-19T12:44:17;5.53;;;1.30;;
20956;SDS011;10637;47.970;7.830;2023-11-19T12:49:19;6.23;;;1.50;;
20956;SDS011;10637;47.970;7.830;2023-11-19T12:54:36;7.03;;;1.60;;
20956;SDS011;10637;47.970;7.830;2023-11-19T12:59:39;9.27;;;1.60;;
20956;SDS011;10637;47.970;7.830;2023-11-19T13:04:40;7.77;;;2.70;;
20956;SDS011;10637;47.970;7.830;2023-11-19T13:09:42;8.77;;;2.60;;
20956;SDS011;10637;47.970;7.830;2023-11-19T13:14:44;5.83;;;1.90;;
20956;SDS011;10637;47.970;7.830;2023-11-19T13:19:47;6.53;;;2.00;;
20956;SDS011;10637;47.970;7.830;2023-11-19T13:24:50;6.90;;;2.07;;
20956;SDS011;10637;47.970;7.830;2023-11-19T13:29:51;6.63;;;1.70;;
20956;SDS011;10637;47.970;7.830;2023-11-19T13:34:53;6.30;;;1.43;;
20956;SDS011;10637;47.970;7.830;2023-11-19T13:39:55;7.07;;;1.87;;
20956;SDS011;10637;47.970;7.830;2023-11-19T13:44:57;7.87;;;3.30;;
20956;SDS011;10637;47.970;7.830;2023-11-19T13:49:59;7.93;;;1.57;;
20956;SDS011;10637;47.970;7.830;2023-11-19T13:55:00;6.13;;;1.20;;
20956;SDS011;10637;47.970;7.830;2023-11-19T14:00:03;6.80;;;1.30;;
20956;SDS011;10637;47.970;7.830;2023-11-19T14:05:13;8.50;;;1.43;;
20956;SDS011;10637;47.970;7.830;2023-11-19T14:10:16;5.50;;;1.20;;
20956;SDS011;10637;47.970;7.830;2023-11-19T14:15:19;7.13;;;1.60;;
20956;SDS011;10637;47.970;7.830;2023-11-19T14:20:21;7.20;;;1.60;;
20956;SDS011;10637;47.970;7.830;2023-11-19T14:25:22;8.93;;;1.30;;
20956;SDS011;10637;47.970;7.830;2023-11-19T14:30:24;6.30;;;1.30;;
20956;SDS011;10637;47.970;7.830;2023-11-19T14:35:26;7.37;;;1.50;;
20956;SDS011;10637;47.970;7.830;2023-11-19T14:40:28;6.97;;;1.40;;
20956;SDS011;10637;47.970;7.830;2023-11-19T14:45:32;7.93;;;1.33;;
20956;SDS011;10637;47.970;7.830;2023-11-19T14:50:45;8.83;;;1.53;;
20956;SDS011;10637;47.970;7.830;2023-11-19T14:55:47;7.27;;;1.40;;
20956;SDS011;10637;47.970;7.830;2023-11-19T15:00:48;7.03;;;1.60;;
20956;SDS011;10637;47.970;7.830;2023-11-19T15:05:50;6.30;;;1.33;;
20956;SDS011;10637;47.970;7.830;2023-11-19T15:10:52;9.27;;;1.60;;
20956;SDS011;10637;47.970;7.830;2023-11-19T15:15:54;8.10;;;1.60;;
20956;SDS011;10637;47.970;7.830;2023-11-19T15:20:56;8.67;;;1.47;;
20956;SDS011;10637;47.970;7.830;2023-11-19T15:25:58;6.90;;;1.40;;
20956;SDS011;10637;47.970;7.830;2023-11-19T15:31:00;7.83;;;1.60;;
20956;SDS011;10637;47.970;7.830;2023-11-19T15:36:02;9.83;;;1.80;;
20956;SDS011;10637;47.970;7.830;2023-11-19T15:41:09;7.10;;;2.00;;
20956;SDS011;10637;47.970;7.830;2023-11-19T15:46:13;11.10;;;1.90;;
20956;SDS011;10637;47.970;7.830;2023-11-19T15:51:17;7.67;;;1.60;;
20956;SDS011;10637;47.970;7.830;2023-11-19T15:56:19;5.73;;;1.30;;
20956;SDS011;10637;47.970;7.830;2023-11-19T16:01:21;10.43;;;1.77;;
20956;SDS011;10637;47.970;7.830;2023-11-19T16:06:22;6.57;;;1.70;;
20956;SDS011;10637;47.970;7.830;2023-11-19T16:11:24;6.80;;;1.40;;
20956;SDS011;10637;47.970;7.830;2023-11-19T16:16:26;6.47;;;1.20;;
20956;SDS011;10637;47.970;7.830;2023-11-19T16:21:28;7.77;;;1.50;;
20956;SDS011;10637;47.970;7.830;2023-11-19T16:26:30;7.13;;;1.77;;
20956;SDS011;10637;47.970;7.830;2023-11-19T16:31:33;6.20;;;1.30;;
20956;SDS011;10637;47.970;7.830;2023-11-19T16:36:36;9.20;;;1.57;;
20956;SDS011;10637;47.970;7.830;2023-11-19T16:41:38;6.77;;;1.60;;
20956;SDS011;10637;47.970;7.830;2023-11-19T16:46:44;6.83;;;1.87;;
20956;SDS011;10637;47.970;7.830;2023-11-19T16:51:46;6.93;;;1.67;;
20956;SDS011;10637;47.970;7.830;2023-11-19T16:56:48;7.57;;;1.57;;
20956;SDS011;10637;47.970;7.830;2023-11-19T17:01:49;5.57;;;1.50;;
20956;SDS011;10637;47.970;7.830;2023-11-19T17:06:52;6.37;;;1.57;;
20956;SDS011;10637;47.970;7.830;2023-11-19T17:11:53;6.07;;;1.47;;
20956;SDS011;10637;47.970;7.830;2023-11-19T17:16:55;5.30;;;1.30;;
20956;SDS011;10637;47.970;7.830;2023-11-19T17:21:57;4.83;;;1.20;;
20956;SDS011;10637;47.970;7.830;2023-11-19T17:26:58;8.53;;;1.50;;
20956;SDS011;10637;47.970;7.830;2023-11-19T17:32:00;6.73;;;1.43;;
20956;SDS011;10637;47.970;7.830;2023-11-19T17:37:03;10.63;;;3.00;;
20956;SDS011;10637;47.970;7.830;2023-11-19T17:42:05;5.57;;;1.40;;
20956;SDS011;10637;47.970;7.830;2023-11-19T17:47:07;7.80;;;1.43;;
20956;SDS011;10637;47.970;7.830;2023-11-19T17:52:09;5.80;;;1.30;;
20956;SDS011;10637;47.970;7.830;2023-11-19T17:57:11;6.63;;;1.43;;
20956;SDS011;10637;47.970;7.830;2023-11-19T18:02:14;4.80;;;1.30;;
20956;SDS011;10637;47.970;7.830;2023-11-19T18:07:16;5.07;;;1.10;;
20956;SDS011;10637;47.970;7.830;2023-11-19T18:12:18;4.97;;;1.20;;
20956;SDS011;10637;47.970;7.830;2023-11-19T18:17:20;5.70;;;1.47;;
20956;SDS011;10637;47.970;7.830;2023-11-19T18:22:22;4.67;;;1.20;;
20956;SDS011;10637;47.970;7.830;2023-11-19T18:27:25;7.23;;;1.40;;
20956;SDS011;10637;47.970;7.830;2023-11-19T18:32:27;6.40;;;1.43;;
20956;SDS011;10637;47.970;7.830;2023-11-19T18:37:29;5.90;;;1.50;;
20956;SDS011;10637;47.970;7.830;2023-11-19T18:42:31;6.90;;;1.40;;
20956;SDS011;10637;47.970;7.830;2023-11-19T18:47:33;5.37;;;1.40;;
20956;SDS011;10637;47.970;7.830;2023-11-19T18:52:36;6.20;;;1.20;;
20956;SDS011;10637;47.970;7.830;2023-11-19T18:57:38;5.50;;;1.40;;
20956;SDS011;10637;47.970;7.830;2023-11-19T19:02:39;6.67;;;1.70;;
20956;SDS011;10637;47.970;7.830;2023-11-19T19:08:02;5.20;;;1.50;;
20956;SDS011;10637;47.970;7.830;2023-11-19T19:13:04;6.33;;;1.50;;
20956;SDS011;10637;47.970;7.830;2023-11-19T19:18:06;6.57;;;1.30;;
20956;SDS011;10637;47.970;7.830;2023-11-19T19:23:08;6.60;;;1.90;;
20956;SDS011;10637;47.970;7.830;2023-11-19T19:28:10;5.13;;;1.40;;
20956;SDS011;10637;47.970;7.830;2023-11-19T19:33:15;5.90;;;1.50;;
20956;SDS011;10637;47.970;7.830;2023-11-19T19:38:16;6.47;;;1.93;;
20956;SDS011;10637;47.970;7.830;2023-11-19T19:43:18;5.10;;;1.60;;
20956;SDS011;10637;47.970;7.830;2023-11-19T19:48:20;5.73;;;1.80;;
20956;SDS011;10637;47.970;7.830;2023-11-19T19:53:22;4.67;;;1.27;;
20956;SDS011;10637;47.970;7.830;2023-11-19T19:58:23;5.07;;;1.50;;
20956;SDS011;10637;47.970;7.830;2023-11-19T20:03:25;14.10;;;4.80;;
20956;SDS011;10637;47.970;7.830;2023-11-19T20:08:28;6.80;;;2.00;;
20956;SDS011;10637;47.970;7.830;2023-11-19T20:13:30;6.83;;;1.50;;
20956;SDS011;10637;47.970;7.830;2023-11-19T20:18:33;4.70;;;1.50;;
20956;SDS011;10637;47.970;7.830;2023-11-19T20:23:35;8.23;;;1.70;;
20956;SDS011;10637;47.970;7.830;2023-11-19T20:28:37;6.27;;;1.27;;
20956;SDS011;10637;47.970;7.830;2023-11-19T20:33:38;4.90;;;1.20;;
20956;SDS011;10637;47.970;7.830;2023-11-19T20:38:41;4.43;;;1.10;;
20956;SDS011;10637;47.970;7.830;2023-11-19T20:43:46;5.97;;;1.20;;
20956;SDS011;10637;47.970;7.830;2023-11-19T20:48:47;6.60;;;1.40;;
20956;SDS011;10637;47.970;7.830;2023-11-19T20:53:49;9.63;;;1.80;;
20956;SDS011;10637;47.970;7.830;2023-11-19T20:58:52;6.00;;;1.20;;
20956;SDS011;10637;47.970;7.830;2023-11-19T21:03:55;4.10;;;1.07;;
20956;SDS011;10637;47.970;7.830;2023-11-19T21:08:57;7.10;;;1.50;;
20956;SDS011;10637;47.970;7.830;2023-11-19T21:13:59;5.87;;;1.20;;
20956;SDS011;10637;47.970;7.830;2023-11-19T21:19:00;6.03;;;1.30;;
20956;SDS011;10637;47.970;7.830;2023-11-19T21:24:02;7.70;;;1.60;;
20956;SDS011;10637;47.970;7.830;2023-11-19T21:29:05;7.17;;;1.43;;
20956;SDS011;10637;47.970;7.830;2023-11-19T21:34:07;7.20;;;1.70;;
20956;SDS011;10637;47.970;7.830;2023-11-19T21:39:09;8.23;;;1.60;;
20956;SDS011;10637;47.970;7.830;2023-11-19T21:44:11;7.13;;;1.40;;
20956;SDS011;10637;47.970;7.830;2023-11-19T21:49:12;9.27;;;1.50;;
20956;SDS011;10637;47.970;7.830;2023-11-19T21:54:14;9.17;;;2.00;;
20956;SDS011;10637;47.970;7.830;2023-11-19T21:59:16;7.80;;;1.80;;
20956;SDS011;10637;47.970;7.830;2023-11-19T22:04:18;6.13;;;1.53;;
20956;SDS011;10637;47.970;7.830;2023-11-19T22:09:20;10.47;;;1.90;;
20956;SDS011;10637;47.970;7.830;2023-11-19T22:14:23;8.87;;;1.40;;
20956;SDS011;10637;47.970;7.830;2023-11-19T22:19:25;8.50;;;1.70;;
20956;SDS011;10637;47.970;7.830;2023-11-19T22:24:26;8.37;;;1.60;;
20956;SDS011;10637;47.970;7.830;2023-11-19T22:29:28;6.97;;;1.87;;
20956;SDS011;10637;47.970;7.830;2023-11-19T22:34:30;8.90;;;1.93;;
20956;SDS011;10637;47.970;7.830;2023-11-19T22:39:32;8.60;;;2.27;;
20956;SDS011;10637;47.970;7.830;2023-11-19T22:44:34;6.53;;;1.50;;
20956;SDS011;10637;47.970;7.830;2023-11-19T22:49:36;7.27;;;1.53;;
20956;SDS011;10637;47.970;7.830;2023-11-19T22:54:38;8.73;;;1.43;;
20956;SDS011;10637;47.970;7.830;2023-11-19T22:59:40;8.17;;;1.70;;
20956;SDS011;10637;47.970;7.830;2023-11-19T23:04:41;5.47;;;1.47;;
20956;SDS011;10637;47.970;7.830;2023-11-19T23:09:43;8.90;;;1.77;;
20956;SDS011;10637;47.970;7.830;2023-11-19T23:14:46;8.37;;;1.60;;
20956;SDS011;10637;47.970;7.830;2023-11-19T23:19:47;8.10;;;1.50;;
20956;SDS011;10637;47.970;7.830;2023-11-19T23:24:53;8.27;;;1.60;;
20956;SDS011;10637;47.970;7.830;2023-11-19T23:29:54;10.37;;;1.63;;
20956;SDS011;10637;47.970;7.830;2023-11-19T23:34:56;12.03;;;1.87;;
20956;SDS011;10637;47.970;7.830;2023-11-19T23:39:59;8.23;;;1.90;;
20956;SDS011;10637;47.970;7.830;2023-11-19T23:45:02;6.90;;;1.47;;
20956;SDS011;10637;47.970;7.830;2023-11-19T23:50:04;8.73;;;1.90;;
20956;SDS011;10637;47.970;7.830;2023-11-19T23:55:06;8.43;;;1.80;;
